San Clemente, CA

3:43 PM PST on March 05, 2015 (GMT -0800)
MesoWest San Clemente Pier CA US SGXWFO | Change Station
CLOSE
Current Station
Personal Weather Station
Location: San Clemente, CA
Elevation: 24 ft
Nearby Weather Stations

Elev 24 ft 33.42 °N, 117.62 °W | Updated 6 hours ago

Clear
Clear
72 °F
Feels Like 72 °F
N
8
Wind Variable Wind from WNW
Gusts mph

Today
High -- | Low -- °F
--% Chance of Precip.
Yesterday
High -- | Low -- °F
Precip. -- in
6:13 AM 5:50 PM
Full, 100% visible
Pressure 30.43 in
Visibility 10.0 miles
Clouds Clear
Dew Point 35 °F
Humidity 26%
Rainfall in
Snow Depth Not available.
UV 4 out of 12
Pollen 8.80 out of 12
Air Quality Not available.
Flu Activity Not available.
METAR KNXF 052256Z AUTO 29007KT 10SM CLR 20/07 A3017 RMK AO2 SLP303 T02000072 $

More Conditions Fewer Conditions

Pressure 30.43 in
Visibility 10.0 miles
Clouds Clear
Dew Point 35 °F
Humidity 26%
Rainfall in
Snow Depth Not available.
UV 4 out of 12
Pollen 8.80 out of 12
Air Quality Not available.
Flu Activity Not available.
METAR KNXF 052256Z AUTO 29007KT 10SM CLR 20/07 A3017 RMK AO2 SLP303 T02000072 $

More Conditions Fewer Conditions

10-Day Weather Forecast

Almanac

Astronomy

Mar. 05, 2015 Rise Set
Actual Time
Civil Twilight
Nautical Twilight
Astronomical Twilight
Moon
Length of Visible Light
Length of Day
Tomorrow will be .
, % of the Moon is Illuminated

Today's Extremes

State Highs State Lows

Community

WunderPhotos

Upload Photos

1,803,057 photos uploaded!

WunderBlogs® & News

Nearby

Air Quality

  Air Quality AQ Index Pollutant
Not available.

Snow Depth

Station Depth Elevation

Earthquake Activity

City Distance Mag. Time & Date
Minimum magnitude displayed is 2.5.

Coastal Water Temperatures

Place Temperature

Nearby Weather Stations